createdAt,value
2023-04-04T00:00:52.954Z,102532.03
2023-04-04T00:03:21.418Z,102534.47
2023-04-04T00:05:51.895Z,102526.59
2023-04-04T00:08:20.161Z,102521.41
2023-04-04T00:10:49.690Z,102516.16
2023-04-04T00:13:17.866Z,102520.47
2023-04-04T00:15:46.070Z,102509.00
2023-04-04T00:18:14.339Z,102511.75
2023-04-04T00:20:42.786Z,102518.63
2023-04-04T00:23:11.895Z,102517.66
2023-04-04T00:25:40.063Z,102513.25
2023-04-04T00:28:09.545Z,102515.56
2023-04-04T00:30:38.022Z,102517.91
2023-04-04T00:33:06.519Z,102508.88
2023-04-04T00:35:35.000Z,102505.00
2023-04-04T00:38:03.293Z,102504.16
2023-04-04T00:40:31.468Z,102500.03
2023-04-04T00:43:00.675Z,102499.84
2023-04-04T00:45:31.341Z,102496.53
2023-04-04T00:48:00.274Z,102499.78
2023-04-04T00:50:28.399Z,102504.16
2023-04-04T00:52:56.968Z,102501.31
2023-04-04T00:55:25.735Z,102504.03
2023-04-04T00:57:54.298Z,102495.94
2023-04-04T01:00:22.696Z,102498.94
2023-04-04T01:02:52.724Z,102500.31
2023-04-04T01:05:21.086Z,102497.75
2023-04-04T01:07:49.725Z,102502.38
2023-04-04T01:10:18.240Z,102497.41
2023-04-04T01:12:46.720Z,102503.53
2023-04-04T01:15:14.919Z,102494.66
2023-04-04T01:17:44.820Z,102505.06
2023-04-04T01:20:16.659Z,102498.91
2023-04-04T01:22:50.487Z,102493.84
2023-04-04T01:25:21.956Z,102488.59
2023-04-04T01:27:58.084Z,102488.69
2023-04-04T01:30:29.266Z,102483.47
2023-04-04T01:33:02.762Z,102490.66
2023-04-04T01:35:37.936Z,102487.78
2023-04-04T01:38:19.286Z,102481.63
2023-04-04T01:40:50.445Z,102474.13
2023-04-04T01:43:21.561Z,102473.16
2023-04-04T01:45:50.776Z,102472.34
2023-04-04T01:48:19.980Z,102474.16
2023-04-04T01:50:52.358Z,102473.94
2023-04-04T01:53:21.338Z,102473.22
2023-04-04T01:55:49.886Z,102469.63
2023-04-04T01:58:18.824Z,102477.94
2023-04-04T02:00:48.498Z,102465.97
2023-04-04T02:03:16.726Z,102459.84
2023-04-04T02:05:44.915Z,102456.47
2023-04-04T02:08:13.434Z,102460.00
2023-04-04T02:10:49.623Z,102455.34
2023-04-04T02:13:18.324Z,102455.41
2023-04-04T02:15:49.446Z,102456.34
2023-04-04T02:18:18.544Z,102450.13
2023-04-04T02:20:46.776Z,102449.91
2023-04-04T02:23:15.238Z,102453.16
2023-04-04T02:25:43.374Z,102456.63
2023-04-04T02:28:12.003Z,102447.78
2023-04-04T02:30:40.259Z,102447.78
2023-04-04T02:33:09.899Z,102452.47
2023-04-04T02:35:38.346Z,102448.81
2023-04-04T02:38:07.702Z,102449.78
2023-04-04T02:40:43.403Z,102442.72
2023-04-04T02:43:11.670Z,102444.34
2023-04-04T02:45:40.759Z,102452.50
2023-04-04T02:48:21.370Z,102442.31
2023-04-04T02:50:52.213Z,102436.28
2023-04-04T02:53:20.408Z,102441.09
2023-04-04T02:55:51.145Z,102445.97
2023-04-04T02:58:19.339Z,102441.06
2023-04-04T03:00:48.111Z,102441.88
2023-04-04T03:03:17.110Z,102437.34
2023-04-04T03:05:50.413Z,102428.69
2023-04-04T03:08:19.142Z,102439.91
2023-04-04T03:10:47.551Z,102431.59
2023-04-04T03:13:15.717Z,102429.09
2023-04-04T03:15:43.949Z,102420.44
2023-04-04T03:18:17.520Z,102418.97
2023-04-04T03:20:46.448Z,102416.94
2023-04-04T03:23:16.209Z,102420.69
2023-04-04T03:25:44.698Z,102404.84
2023-04-04T03:28:13.532Z,102407.47
2023-04-04T03:30:42.145Z,102413.19
2023-04-04T03:33:10.588Z,102414.19
2023-04-04T03:35:40.761Z,102411.22
2023-04-04T03:38:09.980Z,102402.81
2023-04-04T03:40:39.918Z,102414.50
2023-04-04T03:43:13.231Z,102399.16
2023-04-04T03:45:42.847Z,102410.72
2023-04-04T03:48:11.534Z,102403.09
2023-04-04T03:50:41.205Z,102397.81
2023-04-04T03:53:09.732Z,102388.41
2023-04-04T03:55:41.694Z,102390.19
2023-04-04T03:58:09.908Z,102391.91
2023-04-04T04:00:38.172Z,102391.88
2023-04-04T04:03:06.606Z,102382.19
2023-04-04T04:05:34.823Z,102384.63
2023-04-04T04:08:02.951Z,102391.56
2023-04-04T04:10:31.675Z,102381.69
2023-04-04T04:13:01.278Z,102389.38
2023-04-04T04:15:30.136Z,102384.91
2023-04-04T04:18:00.951Z,102384.09
2023-04-04T04:20:29.849Z,102394.72
2023-04-04T04:22:58.292Z,102380.72
2023-04-04T04:25:26.553Z,102381.53
2023-04-04T04:28:03.718Z,102382.88
2023-04-04T04:30:32.723Z,102387.88
2023-04-04T04:33:01.154Z,102377.03
2023-04-04T04:35:37.430Z,102372.78
2023-04-04T04:38:06.144Z,102376.44
2023-04-04T04:40:34.423Z,102371.38
2023-04-04T04:43:09.304Z,102380.31
2023-04-04T04:45:37.635Z,102370.84
2023-04-04T04:48:10.706Z,102378.59
2023-04-04T04:50:49.446Z,102380.19
2023-04-04T04:53:27.123Z,102377.63
2023-04-04T04:55:55.309Z,102375.63
2023-04-04T04:58:26.914Z,102384.44
2023-04-04T05:00:58.924Z,102384.56
2023-04-04T05:03:35.268Z,102385.72
2023-04-04T05:06:06.849Z,102378.09
2023-04-04T05:08:36.518Z,102372.34
2023-04-04T05:11:13.218Z,102374.34
2023-04-04T05:13:42.847Z,102379.72
2023-04-04T05:16:11.376Z,102383.22
2023-04-04T05:18:40.043Z,102382.47
2023-04-04T05:21:11.320Z,102377.19
2023-04-04T05:23:39.982Z,102381.75
2023-04-04T05:26:09.625Z,102389.91
2023-04-04T05:28:41.063Z,102386.91
2023-04-04T05:31:10.560Z,102395.72
2023-04-04T05:33:38.997Z,102392.50
2023-04-04T05:36:14.921Z,102384.91
2023-04-04T05:38:48.795Z,102385.19
2023-04-04T05:41:20.904Z,102386.06
2023-04-04T05:43:50.892Z,102390.66
2023-04-04T05:46:25.153Z,102390.13
2023-04-04T05:48:55.374Z,102395.53
2023-04-04T05:51:24.811Z,102390.25
2023-04-04T05:54:11.616Z,102389.31
2023-04-04T05:56:40.858Z,102386.78
2023-04-04T05:59:16.569Z,102393.59
2023-04-04T06:01:56.098Z,102394.91
2023-04-04T06:04:24.487Z,102385.25
2023-04-04T06:06:55.241Z,102399.28
2023-04-04T06:09:23.786Z,102390.47
2023-04-04T06:11:52.041Z,102380.25
2023-04-04T06:14:20.492Z,102391.78
2023-04-04T06:16:48.782Z,102399.50
2023-04-04T06:19:20.106Z,102399.47
2023-04-04T06:21:49.610Z,102403.84
2023-04-04T06:24:17.903Z,102396.94
2023-04-04T06:26:51.343Z,102408.94
2023-04-04T06:29:21.683Z,102403.16
2023-04-04T06:31:50.913Z,102407.53
2023-04-04T06:34:34.624Z,102397.25
2023-04-04T06:37:03.585Z,102398.94
2023-04-04T06:39:38.127Z,102396.31
2023-04-04T06:42:12.524Z,102391.16
2023-04-04T06:44:47.634Z,102394.78
2023-04-04T06:47:16.157Z,102385.22
2023-04-04T06:49:46.599Z,102386.09
2023-04-04T06:52:15.474Z,102386.09
2023-04-04T06:54:43.653Z,102386.09
2023-04-04T06:57:12.004Z,102389.59
2023-04-04T06:59:40.139Z,102380.88
2023-04-04T07:02:09.368Z,102386.13
2023-04-04T07:04:39.657Z,102386.97
2023-04-04T07:07:09.152Z,102382.66
2023-04-04T07:09:37.361Z,102377.41
2023-04-04T07:12:06.155Z,102375.66
2023-04-04T07:14:34.345Z,102372.16
2023-04-04T07:17:10.639Z,102374.78
2023-04-04T07:19:45.668Z,102380.00
2023-04-04T07:22:15.758Z,102378.25
2023-04-04T07:24:44.025Z,102374.78
2023-04-04T07:27:15.257Z,102365.16
2023-04-04T07:29:43.589Z,102360.81
2023-04-04T07:32:11.823Z,102362.56
2023-04-04T07:34:40.068Z,102363.38
2023-04-04T07:37:08.305Z,102363.34
2023-04-04T07:39:37.753Z,102350.09
2023-04-04T07:42:06.159Z,102356.28
2023-04-04T07:44:34.432Z,102354.50
2023-04-04T07:47:09.711Z,102343.97
2023-04-04T07:49:38.365Z,102357.09
2023-04-04T07:52:06.628Z,102349.28
2023-04-04T07:54:34.861Z,102340.38
2023-04-04T07:57:06.037Z,102338.78
2023-04-04T07:59:34.200Z,102340.63
2023-04-04T08:02:02.385Z,102340.53
2023-04-04T08:04:30.620Z,102331.69
2023-04-04T08:06:58.824Z,102323.78
2023-04-04T08:09:31.307Z,102325.63
2023-04-04T08:11:59.886Z,102333.25
2023-04-04T08:14:29.686Z,102333.19
2023-04-04T08:16:57.892Z,102322.75
2023-04-04T08:19:26.062Z,102326.44
2023-04-04T08:21:54.215Z,102329.56
2023-04-04T08:24:22.764Z,102294.75
2023-04-04T08:26:58.209Z,102305.91
2023-04-04T08:29:34.619Z,102319.59
2023-04-04T08:32:02.994Z,102310.53
2023-04-04T08:34:31.247Z,102304.97
2023-04-04T08:37:00.183Z,102299.00
2023-04-04T08:39:28.708Z,102297.19
2023-04-04T08:42:03.707Z,102315.78
2023-04-04T08:44:33.001Z,102323.38
2023-04-04T08:47:06.191Z,102330.31
2023-04-04T08:49:38.427Z,102310.53
2023-04-04T08:52:08.110Z,102305.78
2023-04-04T08:54:38.792Z,102303.59
2023-04-04T08:57:08.432Z,102299.88
2023-04-04T08:59:37.139Z,102302.78
2023-04-04T09:02:24.456Z,102287.06
2023-04-04T09:05:05.688Z,102293.19
2023-04-04T09:07:38.558Z,102300.25
2023-04-04T09:10:10.284Z,102296.16
2023-04-04T09:12:40.546Z,102299.94
2023-04-04T09:15:10.116Z,102295.78
2023-04-04T09:17:39.967Z,102285.44
2023-04-04T09:20:40.825Z,102306.84
2023-04-04T09:23:12.009Z,102314.13
2023-04-04T09:26:02.598Z,102323.81
2023-04-04T09:28:32.798Z,102319.34
2023-04-04T09:31:03.146Z,102318.69
2023-04-04T09:33:34.388Z,102312.66
2023-04-04T09:36:04.498Z,102309.41
2023-04-04T09:38:32.816Z,102305.84
2023-04-04T09:41:01.227Z,102302.66
2023-04-04T09:43:32.322Z,102304.47
2023-04-04T09:46:02.324Z,102289.28
2023-04-04T09:48:33.419Z,102291.00
2023-04-04T09:51:04.769Z,102291.75
2023-04-04T09:53:35.844Z,102282.28
2023-04-04T09:56:07.934Z,102284.69
2023-04-04T09:58:46.312Z,102279.28
2023-04-04T10:01:18.977Z,102269.78
2023-04-04T10:03:54.201Z,102291.06
2023-04-04T10:06:23.228Z,102292.22
2023-04-04T10:08:51.679Z,102280.03
2023-04-04T10:11:29.822Z,102292.16
2023-04-04T10:13:58.887Z,102285.94
2023-04-04T10:16:27.781Z,102294.28
2023-04-04T10:18:57.625Z,102292.84
2023-04-04T10:21:25.792Z,102282.72
2023-04-04T10:23:54.396Z,102270.81
2023-04-04T10:26:23.122Z,102257.47
2023-04-04T10:28:51.277Z,102257.44
2023-04-04T10:31:24.275Z,102260.81
2023-04-04T10:34:05.110Z,102244.78
2023-04-04T10:36:41.719Z,102255.00
2023-04-04T10:39:15.474Z,102276.09
2023-04-04T10:41:45.255Z,102265.88
2023-04-04T10:44:19.837Z,102267.53
2023-04-04T10:46:53.616Z,102264.28
2023-04-04T10:49:24.105Z,102275.69
2023-04-04T10:51:56.919Z,102273.91
2023-04-04T10:54:27.596Z,102274.72
2023-04-04T10:57:00.658Z,102282.09
2023-04-04T10:59:29.437Z,102266.38
2023-04-04T11:01:59.110Z,102266.22
2023-04-04T11:04:34.998Z,102265.13
2023-04-04T11:07:11.230Z,102262.19
2023-04-04T11:09:53.861Z,102254.41
2023-04-04T11:12:24.240Z,102239.22
2023-04-04T11:15:11.272Z,102239.03
2023-04-04T11:17:44.067Z,102229.91
2023-04-04T11:20:16.951Z,102210.34
2023-04-04T11:22:45.816Z,102214.41
2023-04-04T11:25:33.969Z,102200.09
2023-04-04T11:28:06.765Z,102191.97
2023-04-04T11:30:48.917Z,102192.53
2023-04-04T11:33:28.629Z,102203.41
2023-04-04T11:36:01.622Z,102200.47
2023-04-04T11:38:33.256Z,102198.88
2023-04-04T11:41:01.485Z,102200.22
2023-04-04T11:43:29.815Z,102192.53
2023-04-04T11:46:10.179Z,102188.31
2023-04-04T11:48:39.802Z,102180.69
2023-04-04T11:51:11.450Z,102183.47
2023-04-04T11:53:43.549Z,102160.34
2023-04-04T11:56:16.402Z,102159.22
2023-04-04T11:58:50.574Z,102133.91
2023-04-04T12:01:22.296Z,102139.84
2023-04-04T12:03:50.545Z,102137.34
2023-04-04T12:06:20.122Z,102152.03
2023-04-04T12:08:48.484Z,102164.84
2023-04-04T12:11:18.716Z,102153.63
2023-04-04T12:13:46.934Z,102157.88
2023-04-04T12:16:15.153Z,102142.59
2023-04-04T12:18:43.774Z,102148.13
2023-04-04T12:21:12.021Z,102128.22
2023-04-04T12:23:42.011Z,102125.81
2023-04-04T12:26:11.365Z,102127.81
2023-04-04T12:28:40.184Z,102135.13
2023-04-04T12:31:08.960Z,102131.03
2023-04-04T12:33:38.044Z,102130.81
2023-04-04T12:36:07.138Z,102123.41
2023-04-04T12:38:35.688Z,102129.28
2023-04-04T12:41:05.335Z,102122.47
2023-04-04T12:43:34.850Z,102128.19
2023-04-04T12:46:03.709Z,102112.56
2023-04-04T12:48:34.235Z,102099.28
2023-04-04T12:51:04.825Z,102101.19
2023-04-04T12:53:33.648Z,102087.69
2023-04-04T12:56:04.396Z,102083.31
2023-04-04T12:58:35.986Z,102061.97
2023-04-04T13:01:06.986Z,102074.41
2023-04-04T13:03:37.893Z,102069.91
2023-04-04T13:06:12.820Z,102070.28
2023-04-04T13:08:50.401Z,102065.75
2023-04-04T13:11:18.735Z,102068.63
2023-04-04T13:13:48.984Z,102059.81
2023-04-04T13:16:31.302Z,102045.88
2023-04-04T13:19:00.216Z,102045.59
2023-04-04T13:21:28.436Z,102062.44
2023-04-04T13:23:56.549Z,102053.41
2023-04-04T13:26:24.731Z,102052.16
2023-04-04T13:28:54.386Z,102055.41
2023-04-04T13:31:25.452Z,102050.25
2023-04-04T13:33:53.622Z,102055.72
2023-04-04T13:36:21.799Z,102043.75
2023-04-04T13:38:50.024Z,102031.38
2023-04-04T13:41:18.192Z,102031.75
2023-04-04T13:43:46.382Z,102019.75
2023-04-04T13:46:16.132Z,102027.59
2023-04-04T13:48:44.298Z,102016.69
2023-04-04T13:51:12.444Z,102025.81
2023-04-04T13:53:41.518Z,102018.69
2023-04-04T13:58:41.070Z,102016.31
2023-04-04T14:01:09.386Z,102016.84
2023-04-04T14:03:39.352Z,101998.28
2023-04-04T14:06:10.932Z,101997.88
2023-04-04T14:08:39.930Z,101984.53
2023-04-04T14:11:08.378Z,101986.28
2023-04-04T14:13:37.203Z,101990.63
2023-04-04T14:16:06.210Z,101992.84
2023-04-04T14:18:35.151Z,101988.88
2023-04-04T14:21:07.503Z,101986.69
2023-04-04T14:23:35.798Z,101979.34
2023-04-04T14:26:04.449Z,101987.53
2023-04-04T14:28:32.762Z,101985.66
2023-04-04T14:31:01.522Z,101981.91
2023-04-04T14:33:30.009Z,101977.28
2023-04-04T14:35:58.170Z,101977.63
2023-04-04T14:38:27.660Z,101982.63
2023-04-04T14:40:55.801Z,101985.56
2023-04-04T14:43:24.230Z,101979.22
2023-04-04T14:45:52.404Z,101979.03
2023-04-04T14:48:20.554Z,101960.53
2023-04-04T14:50:48.713Z,101970.75
2023-04-04T14:53:17.311Z,101973.75
2023-04-04T14:55:46.793Z,101968.44
2023-04-04T14:58:15.000Z,101965.44
2023-04-04T15:00:43.279Z,101950.31
2023-04-04T15:03:11.460Z,101947.56
2023-04-04T15:05:39.860Z,101943.56
2023-04-04T15:08:08.434Z,101944.81
2023-04-04T15:10:36.805Z,101936.94
2023-04-04T15:13:06.884Z,101931.00
2023-04-04T15:15:35.009Z,101928.50
2023-04-04T15:18:03.510Z,101931.59
2023-04-04T15:20:31.972Z,101916.94
2023-04-04T15:23:00.210Z,101901.84
2023-04-04T15:25:29.828Z,101902.88
2023-04-04T15:27:58.012Z,101915.47
2023-04-04T15:30:28.017Z,101910.56
2023-04-04T15:32:57.163Z,101916.78
2023-04-04T15:35:25.459Z,101921.56
2023-04-04T15:37:53.617Z,101932.16
2023-04-04T15:40:22.413Z,101913.13
2023-04-04T15:42:51.320Z,101914.31
2023-04-04T15:45:19.746Z,101914.34
2023-04-04T15:47:49.235Z,101928.25
2023-04-04T15:50:17.454Z,101935.47
2023-04-04T15:52:45.601Z,101927.28
2023-04-04T15:55:17.259Z,101936.22
2023-04-04T15:57:46.109Z,101931.56
2023-04-04T16:00:16.882Z,101930.53
2023-04-04T16:02:45.389Z,101926.94
2023-04-04T16:05:14.991Z,101934.84
2023-04-04T16:07:43.583Z,101932.41
2023-04-04T16:10:11.868Z,101934.47
2023-04-04T16:12:40.091Z,101937.75
2023-04-04T16:15:09.910Z,101941.53
2023-04-04T16:17:38.299Z,101937.31
2023-04-04T16:20:07.750Z,101936.38
2023-04-04T16:22:37.240Z,101933.00
2023-04-04T16:25:08.746Z,101938.78
2023-04-04T16:27:37.167Z,101933.47
2023-04-04T16:30:06.331Z,101932.06
2023-04-04T16:32:34.655Z,101936.69
2023-04-04T16:35:02.788Z,101932.59
2023-04-04T16:37:30.953Z,101935.72
2023-04-04T16:40:01.179Z,101943.06
2023-04-04T16:42:29.503Z,101931.72
2023-04-04T16:44:57.978Z,101926.16
2023-04-04T16:47:26.913Z,101941.47
2023-04-04T16:49:56.425Z,101935.91
2023-04-04T16:52:24.593Z,101934.84
2023-04-04T16:54:54.311Z,101934.34
2023-04-04T16:57:23.997Z,101931.09
2023-04-04T16:59:52.126Z,101930.06
2023-04-04T17:02:20.352Z,101927.91
2023-04-04T17:04:48.566Z,101945.75
2023-04-04T17:07:16.895Z,101938.53
2023-04-04T17:09:47.097Z,101937.41
2023-04-04T17:12:16.342Z,101943.13
2023-04-04T17:14:46.538Z,101938.91
2023-04-04T17:17:15.325Z,101944.25
2023-04-04T17:19:43.512Z,101943.38
2023-04-04T17:22:12.050Z,101945.09
2023-04-04T17:24:40.698Z,101944.13
2023-04-04T17:27:09.235Z,101940.69
2023-04-04T17:29:37.796Z,101944.28
2023-04-04T17:32:07.676Z,101941.88
2023-04-04T17:34:36.001Z,101954.34
2023-04-04T17:37:04.192Z,101960.66
2023-04-04T17:39:32.750Z,101970.22
2023-04-04T17:42:01.015Z,101970.16
2023-04-04T17:44:29.133Z,101973.59
2023-04-04T17:46:57.295Z,101973.88
2023-04-04T17:49:27.177Z,101973.59
2023-04-04T17:51:55.264Z,101978.09
2023-04-04T17:54:23.607Z,101971.19
2023-04-04T17:56:52.287Z,101964.78
2023-04-04T17:59:20.947Z,101967.44
2023-04-04T18:01:49.197Z,101966.03
2023-04-04T18:04:17.668Z,101963.13
2023-04-04T18:06:47.244Z,101965.88
2023-04-04T18:09:15.587Z,101966.59
2023-04-04T18:11:43.777Z,101976.41
2023-04-04T18:14:12.078Z,101974.56
2023-04-04T18:16:41.224Z,101974.09
2023-04-04T18:19:11.022Z,101980.19
2023-04-04T18:21:39.487Z,101984.56
2023-04-04T18:24:11.679Z,101979.28
2023-04-04T18:26:39.987Z,101982.84
2023-04-04T18:29:08.509Z,101980.66
2023-04-04T18:31:36.790Z,101985.91
2023-04-04T18:34:04.969Z,101979.09
2023-04-04T18:36:33.340Z,101980.75
2023-04-04T18:39:01.906Z,101990.53
2023-04-04T18:41:31.497Z,101987.97
2023-04-04T18:43:59.675Z,101988.97
2023-04-04T18:46:27.845Z,101985.69
2023-04-04T18:48:56.266Z,101985.69
2023-04-04T18:51:24.474Z,101989.19
2023-04-04T18:53:52.685Z,101995.84
2023-04-04T18:56:21.525Z,101993.53
2023-04-04T18:58:51.870Z,101989.06
2023-04-04T19:01:20.173Z,101996.06
2023-04-04T19:03:51.441Z,101988.13
2023-04-04T19:06:19.688Z,101989.88
2023-04-04T19:08:48.857Z,101992.72
2023-04-04T19:11:16.997Z,101998.19
2023-04-04T19:13:45.124Z,101999.94
2023-04-04T19:16:14.646Z,102004.94
2023-04-04T19:18:43.655Z,102008.75
2023-04-04T19:21:11.899Z,102000.84
2023-04-04T19:23:40.089Z,102007.09
2023-04-04T19:26:08.330Z,102013.44
2023-04-04T19:28:36.751Z,102008.22
2023-04-04T19:31:10.960Z,102009.19
2023-04-04T19:33:40.657Z,102006.59
2023-04-04T19:36:11.023Z,102006.63
2023-04-04T19:38:42.328Z,102005.63
2023-04-04T19:41:13.792Z,102009.25
2023-04-04T19:43:44.986Z,102011.91
2023-04-04T19:46:16.461Z,102011.13
2023-04-04T19:48:49.535Z,102011.97
2023-04-04T19:51:37.630Z,102012.84
2023-04-04T19:54:08.381Z,102007.53
2023-04-04T19:56:37.203Z,102014.50
2023-04-04T19:59:09.963Z,102005.72
2023-04-04T20:01:44.700Z,102004.91
2023-04-04T20:04:20.020Z,102011.13
2023-04-04T20:06:48.817Z,102002.47
2023-04-04T20:09:34.492Z,102006.84
2023-04-04T20:12:02.763Z,102005.13
2023-04-04T20:14:31.001Z,102002.50
2023-04-04T20:16:59.132Z,102002.47
2023-04-04T20:19:29.657Z,102003.34
2023-04-04T20:21:57.918Z,101994.63
2023-04-04T20:24:26.426Z,101987.66
2023-04-04T20:26:56.871Z,101988.47
2023-04-04T20:29:27.097Z,101985.91
2023-04-04T20:31:57.607Z,101991.19
2023-04-04T20:34:41.596Z,101991.16
2023-04-04T20:37:13.347Z,101988.56
2023-04-04T20:39:46.538Z,101992.03
2023-04-04T20:42:33.945Z,101982.47
2023-04-04T20:45:13.364Z,101993.78
2023-04-04T20:47:44.117Z,101992.03
2023-04-04T20:50:45.006Z,101984.19
2023-04-04T20:53:19.266Z,101985.09
2023-04-04T20:55:47.550Z,101992.03
2023-04-04T20:58:27.936Z,101994.63
2023-04-04T21:00:57.846Z,101999.00
2023-04-04T21:03:32.166Z,101987.63
2023-04-04T21:06:04.375Z,101991.13
2023-04-04T21:08:44.112Z,101995.50
2023-04-04T21:11:13.574Z,101995.47
2023-04-04T21:13:42.979Z,102003.31
2023-04-04T21:16:12.392Z,101999.75
2023-04-04T21:18:41.893Z,101993.63
2023-04-04T21:21:19.627Z,101999.66
2023-04-04T21:23:50.238Z,101994.53
2023-04-04T21:26:33.999Z,101997.16
2023-04-04T21:29:05.391Z,102000.59
2023-04-04T21:31:41.578Z,101993.56
2023-04-04T21:34:12.555Z,101998.81
2023-04-04T21:36:42.606Z,101996.34
2023-04-04T21:39:13.708Z,101984.09
2023-04-04T21:41:44.247Z,101991.88
2023-04-04T21:44:12.395Z,101998.78
2023-04-04T21:46:42.233Z,101984.91
2023-04-04T21:49:11.056Z,101985.59
2023-04-04T21:51:39.345Z,101984.91
2023-04-04T21:54:09.122Z,101974.53
2023-04-04T21:56:38.417Z,101984.03
2023-04-04T21:59:09.017Z,101982.22
2023-04-04T22:01:37.586Z,101983.13
2023-04-04T22:04:05.901Z,101981.34
2023-04-04T22:06:34.047Z,101988.28
2023-04-04T22:09:03.056Z,101988.31
2023-04-04T22:11:34.586Z,101986.59
2023-04-04T22:14:07.273Z,101981.41
2023-04-04T22:16:38.980Z,101972.66
2023-04-04T22:19:11.282Z,101973.47
2023-04-04T22:21:47.873Z,101977.75
2023-04-04T22:24:18.850Z,101972.56
2023-04-04T22:26:50.445Z,101962.16
2023-04-04T22:29:18.767Z,101962.22
2023-04-04T22:31:46.949Z,101966.50
2023-04-04T22:34:15.633Z,101972.63
2023-04-04T22:36:44.570Z,101960.28
2023-04-04T22:39:15.930Z,101958.59
2023-04-04T22:41:45.099Z,101963.81
2023-04-04T22:44:14.982Z,101965.31
2023-04-04T22:46:43.428Z,101955.72
2023-04-04T22:49:13.298Z,101958.56
2023-04-04T22:51:45.661Z,101950.84
2023-04-04T22:54:15.406Z,101953.38
2023-04-04T22:56:43.711Z,101951.66
2023-04-04T22:59:12.357Z,101949.88
2023-04-04T23:01:42.203Z,101947.91
2023-04-04T23:04:10.939Z,101946.25
2023-04-04T23:06:39.229Z,101942.69
2023-04-04T23:09:08.546Z,101940.91
2023-04-04T23:11:37.617Z,101939.47
2023-04-04T23:14:08.896Z,101939.41
2023-04-04T23:16:37.671Z,101932.47
2023-04-04T23:19:07.556Z,101929.78
2023-04-04T23:21:36.667Z,101931.28
2023-04-04T23:24:05.638Z,101937.22
2023-04-04T23:26:34.081Z,101926.69
2023-04-04T23:29:03.028Z,101929.53
2023-04-04T23:31:31.491Z,101927.00
2023-04-04T23:33:59.726Z,101926.94
2023-04-04T23:36:29.578Z,101921.91
2023-04-04T23:38:57.795Z,101915.75
2023-04-04T23:41:26.317Z,101922.66
2023-04-04T23:43:54.587Z,101918.34
2023-04-04T23:46:23.942Z,101919.13
2023-04-04T23:48:52.244Z,101917.44
2023-04-04T23:51:21.336Z,101918.38
2023-04-04T23:53:50.839Z,101908.88
2023-04-04T23:56:19.269Z,101911.44
2023-04-04T23:58:47.417Z,101898.44
